createdAt,value
2018-04-25T00:00:05.428Z,9.12
2018-04-25T00:03:09.518Z,9.12
2018-04-25T00:06:12.873Z,9.10
2018-04-25T00:09:16.168Z,9.10
2018-04-25T00:12:19.480Z,9.11
2018-04-25T00:15:22.793Z,9.13
2018-04-25T00:18:26.100Z,9.14
2018-04-25T00:21:29.392Z,9.12
2018-04-25T00:24:32.718Z,9.07
2018-04-25T00:27:36.793Z,8.96
2018-04-25T00:30:40.105Z,8.91
2018-04-25T00:33:43.396Z,8.83
2018-04-25T00:36:46.720Z,8.75
2018-04-25T00:39:50.018Z,8.73
2018-04-25T00:42:54.094Z,8.71
2018-04-25T00:45:57.417Z,8.70
2018-04-25T00:49:00.732Z,8.70
2018-04-25T00:52:04.805Z,8.67
2018-04-25T00:55:08.122Z,8.67
2018-04-25T00:58:11.421Z,8.61
2018-04-25T01:01:14.737Z,8.55
2018-04-25T01:04:18.829Z,8.55
2018-04-25T01:07:22.125Z,8.53
2018-04-25T01:10:25.445Z,8.55
2018-04-25T01:13:29.510Z,8.54
2018-04-25T01:16:32.826Z,8.53
2018-04-25T01:19:36.126Z,8.50
2018-04-25T01:22:39.458Z,8.44
2018-04-25T01:25:42.754Z,8.43
2018-04-25T01:28:53.353Z,8.43
2018-04-25T01:31:56.651Z,8.47
2018-04-25T01:34:59.969Z,8.54
2018-04-25T01:38:06.738Z,8.61
2018-04-25T01:41:13.237Z,8.63
2018-04-25T01:44:22.097Z,8.67
2018-04-25T01:47:39.561Z,8.69
2018-04-25T01:50:42.869Z,8.74
2018-04-25T01:54:03.910Z,8.78
2018-04-25T01:57:25.581Z,8.78
2018-04-25T02:00:46.558Z,8.80
2018-04-25T02:03:59.894Z,8.81
2018-04-25T02:07:03.221Z,8.77
2018-04-25T02:10:07.282Z,8.77
2018-04-25T02:13:11.369Z,8.78
2018-04-25T02:16:14.686Z,8.74
2018-04-25T02:19:17.992Z,8.73
2018-04-25T02:22:21.301Z,8.73
2018-04-25T02:25:25.379Z,8.74
2018-04-25T02:28:28.668Z,8.75
2018-04-25T02:31:31.980Z,8.78
2018-04-25T02:34:35.298Z,8.66
2018-04-25T02:37:39.383Z,8.63
2018-04-25T02:40:42.681Z,8.63
2018-04-25T02:43:46.007Z,8.63
2018-04-25T02:46:50.083Z,8.65
2018-04-25T02:49:53.390Z,8.63
2018-04-25T02:52:56.703Z,8.63
2018-04-25T02:56:00.893Z,8.62
2018-04-25T02:59:04.106Z,8.60
2018-04-25T03:02:07.414Z,8.62
2018-04-25T03:05:10.710Z,8.62
2018-04-25T03:08:14.800Z,8.60
2018-04-25T03:11:18.095Z,8.54
2018-04-25T03:14:21.408Z,8.58
2018-04-25T03:17:24.734Z,8.58
2018-04-25T03:20:28.041Z,8.58
2018-04-25T03:23:31.353Z,8.63
2018-04-25T03:26:34.645Z,8.69
2018-04-25T03:29:37.969Z,8.71
2018-04-25T03:32:41.276Z,8.75
2018-04-25T03:35:44.585Z,8.79
2018-04-25T03:38:47.901Z,8.84
2018-04-25T03:41:51.985Z,8.87
2018-04-25T03:44:55.291Z,8.92
2018-04-25T03:47:59.381Z,8.98
2018-04-25T03:51:02.673Z,9.02
2018-04-25T03:54:06.059Z,9.02
2018-04-25T03:57:09.323Z,9.00
2018-04-25T04:00:12.618Z,9.02
2018-04-25T04:03:16.698Z,9.01
2018-04-25T04:06:20.005Z,8.96
2018-04-25T04:09:23.296Z,9.03
2018-04-25T04:12:26.613Z,9.18
2018-04-25T04:15:30.674Z,9.20
2018-04-25T04:18:33.988Z,9.24
2018-04-25T04:21:37.294Z,9.28
2018-04-25T04:24:40.611Z,9.34
2018-04-25T04:27:44.695Z,9.36
2018-04-25T04:30:48.827Z,9.42
2018-04-25T04:33:52.145Z,9.45
2018-04-25T04:36:56.196Z,9.53
2018-04-25T04:39:59.509Z,9.58
2018-04-25T04:43:02.806Z,9.62
2018-04-25T04:46:06.126Z,9.70
2018-04-25T04:49:09.437Z,9.76
2018-04-25T04:52:13.525Z,9.77
2018-04-25T04:55:16.845Z,9.86
2018-04-25T04:58:20.917Z,9.91
2018-04-25T05:01:24.241Z,10.04
2018-04-25T05:04:27.546Z,10.15
2018-04-25T05:07:30.861Z,10.33
2018-04-25T05:10:34.933Z,10.62
2018-04-25T05:13:38.267Z,10.96
2018-04-25T05:16:42.341Z,11.19
2018-04-25T05:19:45.675Z,11.38
2018-04-25T05:22:49.745Z,11.44
2018-04-25T05:25:53.069Z,11.47
2018-04-25T05:28:56.385Z,11.52
2018-04-25T05:32:00.482Z,11.55
2018-04-25T05:35:03.797Z,11.56
2018-04-25T05:38:07.868Z,11.54
2018-04-25T05:41:11.197Z,11.51
2018-04-25T05:44:14.500Z,11.52
2018-04-25T05:47:18.586Z,11.51
2018-04-25T05:50:21.897Z,11.50
2018-04-25T05:53:25.218Z,11.52
2018-04-25T05:56:29.282Z,11.51
2018-04-25T05:59:32.605Z,11.51
2018-04-25T06:02:35.939Z,11.49
2018-04-25T06:05:39.259Z,11.44
2018-04-25T06:08:42.587Z,11.41
2018-04-25T06:11:45.895Z,11.43
2018-04-25T06:14:49.221Z,11.42
2018-04-25T06:17:52.532Z,11.39
2018-04-25T06:20:55.848Z,11.38
2018-04-25T06:23:59.166Z,11.38
2018-04-25T06:27:02.599Z,11.38
2018-04-25T06:30:05.929Z,11.39
2018-04-25T06:33:09.237Z,11.34
2018-04-25T06:36:12.554Z,11.34
2018-04-25T06:39:15.853Z,11.31
2018-04-25T06:42:19.174Z,11.27
2018-04-25T06:45:23.249Z,11.28
2018-04-25T06:48:26.578Z,11.28
2018-04-25T06:51:30.650Z,11.25
2018-04-25T06:54:33.978Z,11.23
2018-04-25T06:57:37.305Z,11.22
2018-04-25T07:00:40.614Z,11.20
2018-04-25T07:03:43.933Z,11.17
2018-04-25T07:06:47.252Z,11.15
2018-04-25T07:09:50.554Z,11.12
2018-04-25T07:12:53.881Z,11.16
2018-04-25T07:15:57.941Z,11.16
2018-04-25T07:19:01.269Z,11.13
2018-04-25T07:22:04.570Z,11.10
2018-04-25T07:25:07.893Z,11.01
2018-04-25T07:28:11.194Z,10.98
2018-04-25T07:31:14.514Z,10.96
2018-04-25T07:34:17.809Z,10.93
2018-04-25T07:37:21.134Z,10.86
2018-04-25T07:40:24.433Z,10.89
2018-04-25T07:43:27.761Z,10.85
2018-04-25T07:46:31.850Z,10.83
2018-04-25T07:49:35.184Z,10.67
2018-04-25T07:52:38.505Z,10.35
2018-04-25T07:55:41.856Z,10.07
2018-04-25T07:58:45.937Z,9.86
2018-04-25T08:01:49.235Z,9.72
2018-04-25T08:04:52.550Z,9.64
2018-04-25T08:07:55.861Z,9.52
2018-04-25T08:10:59.957Z,9.38
2018-04-25T08:14:20.788Z,9.16
2018-04-25T08:17:42.533Z,8.91
2018-04-25T08:24:30.529Z,8.69
2018-04-25T08:27:33.837Z,8.65
2018-04-25T08:30:37.169Z,8.58
2018-04-25T08:33:42.082Z,8.53
2018-04-25T08:36:45.400Z,8.52
2018-04-25T08:39:49.483Z,8.51
2018-04-25T08:42:52.786Z,8.49
2018-04-25T08:45:56.105Z,8.47
2018-04-25T08:49:00.172Z,8.50
2018-04-25T08:52:03.485Z,8.60
2018-04-25T08:55:06.785Z,8.64
2018-04-25T08:58:10.100Z,8.62
2018-04-25T09:01:13.424Z,8.63
2018-04-25T09:04:17.490Z,8.66
2018-04-25T09:07:20.802Z,8.72
2018-04-25T09:10:24.105Z,8.88
2018-04-25T09:13:28.362Z,8.85
2018-04-25T09:16:31.661Z,8.90
2018-04-25T09:19:34.969Z,8.88
2018-04-25T09:22:38.289Z,8.96
2018-04-25T09:25:41.588Z,9.08
2018-04-25T09:28:44.901Z,9.21
2018-04-25T09:31:48.237Z,9.41
2018-04-25T09:34:51.529Z,9.37
2018-04-25T09:37:54.841Z,9.50
2018-04-25T09:40:58.132Z,9.64
2018-04-25T09:44:01.462Z,10.01
2018-04-25T09:47:04.770Z,10.30
2018-04-25T09:50:08.878Z,10.44
2018-04-25T09:53:12.173Z,10.57
2018-04-25T09:56:15.502Z,10.51
2018-04-25T09:59:18.801Z,10.63
2018-04-25T10:02:28.421Z,10.79
2018-04-25T10:05:31.761Z,10.79
2018-04-25T10:08:35.076Z,10.75
2018-04-25T10:11:38.397Z,10.76
2018-04-25T10:14:41.696Z,10.84
2018-04-25T10:17:45.029Z,10.94
2018-04-25T10:20:49.096Z,10.92
2018-04-25T10:23:52.432Z,10.84
2018-04-25T10:26:55.727Z,10.92
2018-04-25T10:29:59.048Z,10.92
2018-04-25T10:33:02.344Z,10.93
2018-04-25T10:36:05.674Z,11.03
2018-04-25T10:39:08.981Z,11.00
2018-04-25T10:42:12.297Z,11.13
2018-04-25T10:45:15.596Z,11.25
2018-04-25T10:48:18.925Z,11.44
2018-04-25T10:51:22.257Z,11.66
2018-04-25T10:54:25.562Z,11.60
2018-04-25T10:57:28.897Z,11.46
2018-04-25T11:00:32.973Z,11.40
2018-04-25T11:03:36.303Z,11.31
2018-04-25T11:06:39.648Z,11.42
2018-04-25T11:09:43.019Z,11.54
2018-04-25T11:12:46.345Z,11.52
2018-04-25T11:15:49.646Z,11.36
2018-04-25T11:18:52.997Z,11.16
2018-04-25T11:21:57.109Z,11.08
2018-04-25T11:25:01.173Z,11.07
2018-04-25T11:28:04.493Z,11.10
2018-04-25T11:31:07.826Z,11.24
2018-04-25T11:34:11.926Z,11.23
2018-04-25T11:37:15.225Z,11.14
2018-04-25T11:40:19.305Z,11.11
2018-04-25T11:43:22.609Z,11.03
2018-04-25T11:46:25.924Z,11.02
2018-04-25T11:49:29.226Z,11.05
2018-04-25T11:52:32.553Z,11.16
2018-04-25T11:55:35.886Z,11.24
2018-04-25T11:58:39.186Z,11.37
2018-04-25T12:01:42.500Z,11.50
2018-04-25T12:04:45.803Z,11.62
2018-04-25T12:07:49.888Z,11.72
2018-04-25T12:10:53.188Z,11.80
2018-04-25T12:13:56.513Z,11.76
2018-04-25T12:17:00.014Z,11.73
2018-04-25T12:20:03.368Z,11.80
2018-04-25T12:23:06.645Z,11.76
2018-04-25T12:26:09.966Z,11.65
2018-04-25T12:29:13.269Z,11.72
2018-04-25T12:32:16.597Z,11.79
2018-04-25T12:35:20.682Z,11.90
2018-04-25T12:38:23.994Z,11.79
2018-04-25T12:41:27.361Z,11.61
2018-04-25T12:44:30.661Z,11.47
2018-04-25T12:47:33.997Z,11.32
2018-04-25T12:50:37.305Z,11.25
2018-04-25T12:53:41.389Z,11.13
2018-04-25T12:56:44.699Z,11.04
2018-04-25T12:59:48.013Z,11.02
2018-04-25T13:02:52.080Z,11.00
2018-04-25T13:05:55.393Z,10.98
2018-04-25T13:08:58.721Z,11.00
2018-04-25T13:12:02.811Z,11.00
2018-04-25T13:15:06.215Z,11.05
2018-04-25T13:18:10.205Z,11.12
2018-04-25T13:21:13.567Z,11.10
2018-04-25T13:24:17.608Z,11.07
2018-04-25T13:27:20.920Z,11.12
2018-04-25T13:30:24.225Z,11.10
2018-04-25T13:33:27.549Z,11.14
2018-04-25T13:36:30.877Z,11.18
2018-04-25T13:39:34.179Z,11.19
2018-04-25T13:42:37.494Z,11.25
2018-04-25T13:45:40.797Z,11.42
2018-04-25T13:48:44.128Z,11.56
2018-04-25T13:51:48.194Z,11.58
2018-04-25T13:54:51.513Z,11.66
2018-04-25T13:57:54.870Z,11.73
2018-04-25T14:00:58.955Z,11.78
2018-04-25T14:04:02.272Z,11.73
2018-04-25T14:07:05.597Z,11.70
2018-04-25T14:10:08.966Z,11.82
2018-04-25T14:13:12.271Z,11.86
2018-04-25T14:16:15.590Z,11.82
2018-04-25T14:19:18.912Z,11.65
2018-04-25T14:22:22.485Z,11.47
2018-04-25T14:25:25.827Z,11.33
2018-04-25T14:28:29.913Z,11.28
2018-04-25T14:31:33.224Z,11.22
2018-04-25T14:34:36.544Z,11.19
2018-04-25T14:37:40.618Z,11.27
2018-04-25T14:40:43.945Z,11.39
2018-04-25T14:43:48.014Z,11.43
2018-04-25T14:46:51.333Z,11.34
2018-04-25T14:49:54.645Z,11.22
2018-04-25T14:52:57.980Z,11.14
2018-04-25T14:56:01.302Z,10.99
2018-04-25T14:59:05.211Z,10.92
2018-04-25T15:02:08.590Z,10.89
2018-04-25T15:05:11.889Z,10.81
2018-04-25T15:08:15.209Z,10.75
2018-04-25T15:11:18.517Z,10.62
2018-04-25T15:14:21.834Z,10.59
2018-04-25T15:17:25.169Z,10.61
2018-04-25T15:20:28.473Z,10.67
2018-04-25T15:23:31.801Z,10.74
2018-04-25T15:26:35.118Z,10.76
2018-04-25T15:29:38.438Z,10.77
2018-04-25T15:32:42.505Z,10.78
2018-04-25T15:35:45.820Z,10.80
2018-04-25T15:38:49.139Z,10.83
2018-04-25T15:41:53.206Z,10.88
2018-04-25T15:44:56.526Z,10.83
2018-04-25T15:47:59.823Z,10.82
2018-04-25T15:51:03.141Z,10.84
2018-04-25T15:54:07.209Z,10.81
2018-04-25T15:57:10.533Z,10.76
2018-04-25T16:00:13.832Z,10.69
2018-04-25T16:03:17.153Z,10.70
2018-04-25T16:06:20.469Z,10.74
2018-04-25T16:09:23.788Z,10.74
2018-04-25T16:12:27.184Z,10.71
2018-04-25T16:15:30.450Z,10.66
2018-04-25T16:18:33.745Z,10.65
2018-04-25T16:21:37.061Z,10.69
2018-04-25T16:24:40.368Z,10.73
2018-04-25T16:27:43.930Z,10.71
2018-04-25T16:30:47.356Z,10.71
2018-04-25T16:33:50.602Z,10.74
2018-04-25T16:36:53.927Z,10.71
2018-04-25T16:39:57.236Z,10.73
2018-04-25T16:43:00.577Z,10.69
2018-04-25T16:46:03.892Z,10.63
2018-04-25T16:49:07.217Z,10.64
2018-04-25T16:52:10.513Z,10.57
2018-04-25T16:55:13.837Z,10.63
2018-04-25T16:58:17.128Z,10.61
2018-04-25T17:01:20.454Z,10.54
2018-04-25T17:04:23.753Z,10.54
2018-04-25T17:07:27.080Z,10.53
2018-04-25T17:10:31.149Z,10.61
2018-04-25T17:13:34.478Z,10.63
2018-04-25T17:16:37.777Z,10.56
2018-04-25T17:19:41.089Z,10.49
2018-04-25T17:22:45.173Z,10.41
2018-04-25T17:25:48.736Z,10.38
2018-04-25T17:28:52.119Z,10.33
2018-04-25T17:31:55.458Z,10.34
2018-04-25T17:34:58.750Z,10.37
2018-04-25T17:38:02.068Z,10.37
2018-04-25T17:41:05.390Z,10.33
2018-04-25T17:44:09.455Z,10.33
2018-04-25T17:47:12.772Z,10.29
2018-04-25T17:50:16.080Z,10.28
2018-04-25T17:53:19.414Z,10.28
2018-04-25T17:56:23.476Z,10.25
2018-04-25T17:59:26.793Z,10.22
2018-04-25T18:02:30.874Z,10.19
2018-04-25T18:05:34.196Z,10.12
2018-04-25T18:08:37.517Z,10.10
2018-04-25T18:11:40.854Z,10.14
2018-04-25T18:14:44.144Z,10.14
2018-04-25T18:17:47.467Z,10.11
2018-04-25T18:20:50.771Z,10.13
2018-04-25T18:23:54.150Z,10.09
2018-04-25T18:26:57.477Z,10.01
2018-04-25T18:30:00.818Z,9.99
2018-04-25T18:33:04.323Z,9.93
2018-04-25T18:36:07.898Z,9.93
2018-04-25T18:39:11.298Z,9.87
2018-04-25T18:42:16.285Z,9.88
2018-04-25T18:45:19.756Z,9.80
2018-04-25T18:48:23.303Z,9.79
2018-04-25T18:51:26.854Z,9.75
2018-04-25T18:54:30.399Z,9.71
2018-04-25T18:57:33.800Z,9.70
2018-04-25T19:00:37.715Z,9.71
2018-04-25T19:03:41.160Z,9.64
2018-04-25T19:06:44.635Z,9.63
2018-04-25T19:09:48.214Z,9.63
2018-04-25T19:12:51.595Z,9.62
2018-04-25T19:15:54.995Z,9.57
2018-04-25T19:18:58.408Z,9.50
2018-04-25T19:22:01.852Z,9.46
2018-04-25T19:25:05.226Z,9.48
2018-04-25T19:28:08.635Z,9.50
2018-04-25T19:31:12.053Z,9.51
2018-04-25T19:34:15.887Z,9.51
2018-04-25T19:37:20.204Z,9.53
2018-04-25T19:40:23.694Z,9.53
2018-04-25T19:43:27.284Z,9.57
2018-04-25T19:46:30.652Z,9.58
2018-04-25T19:49:35.026Z,9.56
2018-04-25T19:52:39.399Z,9.57
2018-04-25T19:55:42.808Z,9.60
2018-04-25T19:58:46.275Z,9.54
2018-04-25T20:01:50.674Z,9.63
2018-04-25T20:04:54.369Z,9.61
2018-04-25T20:07:57.783Z,9.61
2018-04-25T20:11:01.423Z,9.60
2018-04-25T20:14:04.931Z,9.58
2018-04-25T20:17:08.367Z,9.60
2018-04-25T20:20:12.498Z,9.57
2018-04-25T20:23:16.240Z,9.55
2018-04-25T20:26:19.704Z,9.56
2018-04-25T20:29:23.587Z,9.51
2018-04-25T20:32:26.960Z,9.50
2018-04-25T20:35:30.296Z,9.50
2018-04-25T20:38:33.621Z,9.53
2018-04-25T20:41:36.966Z,9.58
2018-04-25T20:44:40.334Z,9.53
2018-04-25T20:47:43.665Z,9.43
2018-04-25T20:50:46.974Z,9.42
2018-04-25T20:53:50.309Z,9.49
2018-04-25T20:56:53.922Z,9.50
2018-04-25T20:59:57.301Z,9.50
2018-04-25T21:03:00.843Z,9.37
2018-04-25T21:06:04.205Z,9.29
2018-04-25T21:09:07.558Z,9.25
2018-04-25T21:12:10.879Z,9.21
2018-04-25T21:15:14.210Z,9.15
2018-04-25T21:18:18.321Z,9.13
2018-04-25T21:21:21.667Z,9.15
2018-04-25T21:24:25.000Z,9.15
2018-04-25T21:27:28.334Z,9.16
2018-04-25T21:30:32.450Z,9.19
2018-04-25T21:33:36.583Z,9.20
2018-04-25T21:36:40.694Z,9.20
2018-04-25T21:39:44.025Z,9.18
2018-04-25T21:42:47.333Z,9.16
2018-04-25T21:45:50.694Z,9.14
2018-04-25T21:48:54.025Z,9.09
2018-04-25T21:51:57.365Z,9.11
2018-04-25T21:55:01.513Z,9.09
2018-04-25T21:58:04.931Z,9.07
2018-04-25T22:01:08.185Z,9.06
2018-04-25T22:04:12.002Z,9.02
2018-04-25T22:07:15.350Z,9.00
2018-04-25T22:10:18.751Z,9.00
2018-04-25T22:13:22.094Z,8.99
2018-04-25T22:16:25.454Z,8.98
2018-04-25T22:19:28.769Z,8.98
2018-04-25T22:22:32.875Z,8.99
2018-04-25T22:25:36.973Z,8.97
2018-04-25T22:28:40.327Z,8.97
2018-04-25T22:31:43.761Z,8.94
2018-04-25T22:34:47.097Z,8.93
2018-04-25T22:37:51.252Z,8.90
2018-04-25T22:40:54.588Z,8.91
2018-04-25T22:43:57.932Z,8.92
2018-04-25T22:47:01.258Z,8.93
2018-04-25T22:50:04.635Z,8.93
2018-04-25T22:53:07.974Z,8.96
2018-04-25T22:56:11.315Z,8.96
2018-04-25T22:59:14.675Z,8.89
2018-04-25T23:02:18.009Z,8.89
2018-04-25T23:05:21.370Z,8.91
2018-04-25T23:08:24.695Z,8.88
2018-04-25T23:11:28.026Z,8.87
2018-04-25T23:14:31.353Z,8.84
2018-04-25T23:17:35.095Z,8.86
2018-04-25T23:20:38.489Z,8.81
2018-04-25T23:23:41.834Z,8.77
2018-04-25T23:26:45.189Z,8.69
2018-04-25T23:29:48.551Z,8.63
2018-04-25T23:32:51.967Z,8.63
2018-04-25T23:35:55.258Z,8.59
2018-04-25T23:38:59.333Z,8.49
2018-04-25T23:42:03.005Z,8.43
2018-04-25T23:45:06.325Z,8.37
2018-04-25T23:48:10.438Z,8.36
2018-04-25T23:51:13.764Z,8.32
2018-04-25T23:54:17.097Z,8.28
2018-04-25T23:57:21.168Z,8.27
